Aberdeen Proving Ground, Maryland
Current Conditions -  °F | °C
As of 8:57 AM on Friday 19 Dec 2014 (Local Time) from KAPG Reporting Station
Overcast Overcast  
Wind Chill: -1°   Ceiling: 3000
Heat Index:   Visibility: 7mi
Dew Point: -5°   Wind: 12mph
Humidity: 56%   Direction: 290°WNW
Pressure: 30.13"   Gusts: NA
Location:  39.48°N, 76.13°W
Report Text: KAPG 191357Z 29010KT 7SM OVC030 03/M05 A3013
Loading
Personal Weather Stations






























Interactive Weather Map New forecast layout! Learn more

10-Day Weather Forecast

Advertisements
Track Severe Weather on mobile